sensor_id;sensor_type;location;lat;lon;timestamp;P1;durP1;ratioP1;P2;durP2;ratioP2
67867;SDS011;54672;46.096;14.470;2024-03-06T00:01:43;9.68;;;4.95;;
67867;SDS011;54672;46.096;14.470;2024-03-06T00:04:09;12.15;;;4.97;;
67867;SDS011;54672;46.096;14.470;2024-03-06T00:06:34;11.70;;;3.95;;
67867;SDS011;54672;46.096;14.470;2024-03-06T00:09:00;9.15;;;4.68;;
67867;SDS011;54672;46.096;14.470;2024-03-06T00:11:27;11.35;;;4.28;;
67867;SDS011;54672;46.096;14.470;2024-03-06T00:13:53;7.57;;;4.25;;
67867;SDS011;54672;46.096;14.470;2024-03-06T00:16:19;11.70;;;4.18;;
67867;SDS011;54672;46.096;14.470;2024-03-06T00:18:45;9.40;;;4.40;;
67867;SDS011;54672;46.096;14.470;2024-03-06T00:21:10;9.50;;;3.78;;
67867;SDS011;54672;46.096;14.470;2024-03-06T00:23:37;9.40;;;3.92;;
67867;SDS011;54672;46.096;14.470;2024-03-06T00:26:03;8.55;;;4.03;;
67867;SDS011;54672;46.096;14.470;2024-03-06T00:28:28;10.63;;;4.43;;
67867;SDS011;54672;46.096;14.470;2024-03-06T00:30:54;8.02;;;4.35;;
67867;SDS011;54672;46.096;14.470;2024-03-06T00:33:20;10.43;;;4.35;;
67867;SDS011;54672;46.096;14.470;2024-03-06T00:35:46;10.68;;;4.63;;
67867;SDS011;54672;46.096;14.470;2024-03-06T00:38:11;9.25;;;4.72;;
67867;SDS011;54672;46.096;14.470;2024-03-06T00:40:38;7.88;;;4.13;;
67867;SDS011;54672;46.096;14.470;2024-03-06T00:43:04;8.63;;;4.30;;
67867;SDS011;54672;46.096;14.470;2024-03-06T00:45:30;7.50;;;4.18;;
67867;SDS011;54672;46.096;14.470;2024-03-06T00:47:55;10.05;;;4.07;;
67867;SDS011;54672;46.096;14.470;2024-03-06T00:50:21;10.82;;;4.53;;
67867;SDS011;54672;46.096;14.470;2024-03-06T00:52:47;10.60;;;4.63;;
67867;SDS011;54672;46.096;14.470;2024-03-06T00:55:13;9.05;;;4.03;;
67867;SDS011;54672;46.096;14.470;2024-03-06T00:57:39;8.45;;;3.78;;
67867;SDS011;54672;46.096;14.470;2024-03-06T01:00:05;10.45;;;4.22;;
67867;SDS011;54672;46.096;14.470;2024-03-06T01:02:38;10.73;;;3.95;;
67867;SDS011;54672;46.096;14.470;2024-03-06T01:05:04;11.07;;;4.57;;
67867;SDS011;54672;46.096;14.470;2024-03-06T01:07:30;11.73;;;4.15;;
67867;SDS011;54672;46.096;14.470;2024-03-06T01:09:56;10.70;;;4.05;;
67867;SDS011;54672;46.096;14.470;2024-03-06T01:12:25;11.80;;;4.47;;
67867;SDS011;54672;46.096;14.470;2024-03-06T01:14:50;13.00;;;5.22;;
67867;SDS011;54672;46.096;14.470;2024-03-06T01:17:16;11.98;;;5.13;;
67867;SDS011;54672;46.096;14.470;2024-03-06T01:19:42;10.32;;;4.85;;
67867;SDS011;54672;46.096;14.470;2024-03-06T01:22:08;11.15;;;4.55;;
67867;SDS011;54672;46.096;14.470;2024-03-06T01:24:34;12.15;;;5.20;;
67867;SDS011;54672;46.096;14.470;2024-03-06T01:27:00;11.10;;;5.05;;
67867;SDS011;54672;46.096;14.470;2024-03-06T01:29:27;8.95;;;4.30;;
67867;SDS011;54672;46.096;14.470;2024-03-06T01:31:54;9.00;;;4.63;;
67867;SDS011;54672;46.096;14.470;2024-03-06T01:34:19;14.23;;;5.32;;
67867;SDS011;54672;46.096;14.470;2024-03-06T01:36:45;14.13;;;5.97;;
67867;SDS011;54672;46.096;14.470;2024-03-06T01:39:10;9.48;;;4.80;;
67867;SDS011;54672;46.096;14.470;2024-03-06T01:41:36;14.23;;;5.35;;
67867;SDS011;54672;46.096;14.470;2024-03-06T01:44:01;8.73;;;5.28;;
67867;SDS011;54672;46.096;14.470;2024-03-06T01:46:28;10.13;;;4.80;;
67867;SDS011;54672;46.096;14.470;2024-03-06T01:48:54;10.93;;;4.50;;
67867;SDS011;54672;46.096;14.470;2024-03-06T01:51:20;9.57;;;4.35;;
67867;SDS011;54672;46.096;14.470;2024-03-06T01:53:45;10.50;;;4.35;;
67867;SDS011;54672;46.096;14.470;2024-03-06T01:56:11;12.35;;;4.97;;
67867;SDS011;54672;46.096;14.470;2024-03-06T01:58:42;10.48;;;4.78;;
67867;SDS011;54672;46.096;14.470;2024-03-06T02:01:10;9.90;;;5.25;;
67867;SDS011;54672;46.096;14.470;2024-03-06T02:03:36;15.77;;;5.68;;
67867;SDS011;54672;46.096;14.470;2024-03-06T02:06:02;10.40;;;5.38;;
67867;SDS011;54672;46.096;14.470;2024-03-06T02:08:28;9.30;;;5.38;;
67867;SDS011;54672;46.096;14.470;2024-03-06T02:10:53;12.93;;;5.47;;
67867;SDS011;54672;46.096;14.470;2024-03-06T02:13:19;13.35;;;5.10;;
67867;SDS011;54672;46.096;14.470;2024-03-06T02:15:46;14.13;;;5.53;;
67867;SDS011;54672;46.096;14.470;2024-03-06T02:18:11;9.60;;;5.07;;
67867;SDS011;54672;46.096;14.470;2024-03-06T02:20:40;10.82;;;5.00;;
67867;SDS011;54672;46.096;14.470;2024-03-06T02:23:06;13.57;;;5.00;;
67867;SDS011;54672;46.096;14.470;2024-03-06T02:25:32;11.30;;;6.25;;
67867;SDS011;54672;46.096;14.470;2024-03-06T02:27:58;9.90;;;4.75;;
67867;SDS011;54672;46.096;14.470;2024-03-06T02:30:26;9.75;;;5.00;;
67867;SDS011;54672;46.096;14.470;2024-03-06T02:32:52;11.07;;;5.70;;
67867;SDS011;54672;46.096;14.470;2024-03-06T02:35:18;11.88;;;5.13;;
67867;SDS011;54672;46.096;14.470;2024-03-06T02:37:43;9.05;;;4.72;;
67867;SDS011;54672;46.096;14.470;2024-03-06T02:40:09;11.02;;;5.10;;
67867;SDS011;54672;46.096;14.470;2024-03-06T02:42:35;10.60;;;4.72;;
67867;SDS011;54672;46.096;14.470;2024-03-06T02:45:05;12.95;;;5.25;;
67867;SDS011;54672;46.096;14.470;2024-03-06T02:47:33;12.35;;;4.88;;
67867;SDS011;54672;46.096;14.470;2024-03-06T02:49:59;10.65;;;5.45;;
67867;SDS011;54672;46.096;14.470;2024-03-06T02:52:24;14.82;;;5.78;;
67867;SDS011;54672;46.096;14.470;2024-03-06T02:54:50;10.80;;;5.13;;
67867;SDS011;54672;46.096;14.470;2024-03-06T02:57:15;10.70;;;4.60;;
67867;SDS011;54672;46.096;14.470;2024-03-06T02:59:41;14.90;;;5.57;;
67867;SDS011;54672;46.096;14.470;2024-03-06T03:02:06;12.40;;;5.05;;
67867;SDS011;54672;46.096;14.470;2024-03-06T03:04:33;11.13;;;5.07;;
67867;SDS011;54672;46.096;14.470;2024-03-06T03:06:58;12.77;;;5.10;;
67867;SDS011;54672;46.096;14.470;2024-03-06T03:09:24;11.10;;;5.03;;
67867;SDS011;54672;46.096;14.470;2024-03-06T03:11:49;11.85;;;5.40;;
67867;SDS011;54672;46.096;14.470;2024-03-06T03:14:15;9.98;;;5.35;;
67867;SDS011;54672;46.096;14.470;2024-03-06T03:16:40;8.77;;;5.05;;
67867;SDS011;54672;46.096;14.470;2024-03-06T03:19:07;11.90;;;4.82;;
67867;SDS011;54672;46.096;14.470;2024-03-06T03:21:33;13.27;;;5.30;;
67867;SDS011;54672;46.096;14.470;2024-03-06T03:23:59;11.25;;;4.93;;
67867;SDS011;54672;46.096;14.470;2024-03-06T03:26:25;13.32;;;5.82;;
67867;SDS011;54672;46.096;14.470;2024-03-06T03:28:50;10.88;;;5.25;;
67867;SDS011;54672;46.096;14.470;2024-03-06T03:31:16;9.13;;;4.70;;
67867;SDS011;54672;46.096;14.470;2024-03-06T03:33:41;12.90;;;4.60;;
67867;SDS011;54672;46.096;14.470;2024-03-06T03:36:07;10.27;;;4.30;;
67867;SDS011;54672;46.096;14.470;2024-03-06T03:38:39;9.63;;;4.78;;
67867;SDS011;54672;46.096;14.470;2024-03-06T03:41:09;13.38;;;5.40;;
67867;SDS011;54672;46.096;14.470;2024-03-06T03:43:39;10.63;;;4.35;;
67867;SDS011;54672;46.096;14.470;2024-03-06T03:46:08;11.88;;;5.03;;
67867;SDS011;54672;46.096;14.470;2024-03-06T03:48:34;12.35;;;5.68;;
67867;SDS011;54672;46.096;14.470;2024-03-06T03:51:04;10.27;;;4.82;;
67867;SDS011;54672;46.096;14.470;2024-03-06T03:53:33;10.30;;;5.40;;
67867;SDS011;54672;46.096;14.470;2024-03-06T03:55:59;9.50;;;5.28;;
67867;SDS011;54672;46.096;14.470;2024-03-06T03:58:25;11.45;;;5.03;;
67867;SDS011;54672;46.096;14.470;2024-03-06T04:00:51;9.38;;;4.68;;
67867;SDS011;54672;46.096;14.470;2024-03-06T04:03:20;11.02;;;4.95;;
67867;SDS011;54672;46.096;14.470;2024-03-06T04:05:47;11.43;;;5.90;;
67867;SDS011;54672;46.096;14.470;2024-03-06T04:08:13;12.25;;;5.70;;
67867;SDS011;54672;46.096;14.470;2024-03-06T04:10:38;10.48;;;4.85;;
67867;SDS011;54672;46.096;14.470;2024-03-06T04:13:04;12.45;;;7.10;;
67867;SDS011;54672;46.096;14.470;2024-03-06T04:15:29;15.57;;;6.13;;
67867;SDS011;54672;46.096;14.470;2024-03-06T04:17:56;11.10;;;6.10;;
67867;SDS011;54672;46.096;14.470;2024-03-06T04:20:21;13.80;;;6.07;;
67867;SDS011;54672;46.096;14.470;2024-03-06T04:22:47;13.20;;;6.00;;
67867;SDS011;54672;46.096;14.470;2024-03-06T04:25:15;13.48;;;6.38;;
67867;SDS011;54672;46.096;14.470;2024-03-06T04:27:41;13.02;;;6.35;;
67867;SDS011;54672;46.096;14.470;2024-03-06T04:30:07;16.50;;;7.00;;
67867;SDS011;54672;46.096;14.470;2024-03-06T04:32:33;15.40;;;7.32;;
67867;SDS011;54672;46.096;14.470;2024-03-06T04:34:58;14.93;;;6.97;;
67867;SDS011;54672;46.096;14.470;2024-03-06T04:37:24;15.90;;;6.82;;
67867;SDS011;54672;46.096;14.470;2024-03-06T04:39:51;20.67;;;7.65;;
67867;SDS011;54672;46.096;14.470;2024-03-06T04:42:18;20.92;;;7.40;;
67867;SDS011;54672;46.096;14.470;2024-03-06T04:44:45;15.10;;;7.07;;
67867;SDS011;54672;46.096;14.470;2024-03-06T04:47:11;14.95;;;7.15;;
67867;SDS011;54672;46.096;14.470;2024-03-06T04:49:37;17.85;;;6.90;;
67867;SDS011;54672;46.096;14.470;2024-03-06T04:52:02;15.27;;;7.25;;
67867;SDS011;54672;46.096;14.470;2024-03-06T04:54:28;15.25;;;8.13;;
67867;SDS011;54672;46.096;14.470;2024-03-06T04:56:55;15.13;;;7.15;;
67867;SDS011;54672;46.096;14.470;2024-03-06T04:59:20;20.40;;;8.00;;
67867;SDS011;54672;46.096;14.470;2024-03-06T05:01:46;19.95;;;8.10;;
67867;SDS011;54672;46.096;14.470;2024-03-06T05:04:11;16.42;;;7.85;;
67867;SDS011;54672;46.096;14.470;2024-03-06T05:06:37;16.33;;;7.78;;
67867;SDS011;54672;46.096;14.470;2024-03-06T05:09:03;19.02;;;7.00;;
67867;SDS011;54672;46.096;14.470;2024-03-06T05:11:30;16.25;;;7.72;;
67867;SDS011;54672;46.096;14.470;2024-03-06T05:14:00;16.45;;;7.53;;
67867;SDS011;54672;46.096;14.470;2024-03-06T05:16:25;19.75;;;7.68;;
67867;SDS011;54672;46.096;14.470;2024-03-06T05:18:51;19.70;;;8.35;;
67867;SDS011;54672;46.096;14.470;2024-03-06T05:21:17;18.27;;;8.23;;
67867;SDS011;54672;46.096;14.470;2024-03-06T05:23:47;18.55;;;7.55;;
67867;SDS011;54672;46.096;14.470;2024-03-06T05:26:14;20.77;;;8.30;;
67867;SDS011;54672;46.096;14.470;2024-03-06T05:28:40;19.38;;;8.77;;
67867;SDS011;54672;46.096;14.470;2024-03-06T05:31:15;19.90;;;8.70;;
67867;SDS011;54672;46.096;14.470;2024-03-06T05:33:46;18.65;;;7.35;;
67867;SDS011;54672;46.096;14.470;2024-03-06T05:36:12;19.27;;;8.00;;
67867;SDS011;54672;46.096;14.470;2024-03-06T05:38:42;15.02;;;7.65;;
67867;SDS011;54672;46.096;14.470;2024-03-06T05:41:08;18.15;;;8.57;;
67867;SDS011;54672;46.096;14.470;2024-03-06T05:43:34;18.05;;;8.02;;
67867;SDS011;54672;46.096;14.470;2024-03-06T05:45:59;19.10;;;8.68;;
67867;SDS011;54672;46.096;14.470;2024-03-06T05:48:25;20.80;;;8.90;;
67867;SDS011;54672;46.096;14.470;2024-03-06T05:50:51;22.73;;;9.10;;
67867;SDS011;54672;46.096;14.470;2024-03-06T05:53:20;25.42;;;9.45;;
67867;SDS011;54672;46.096;14.470;2024-03-06T05:55:45;29.02;;;9.45;;
67867;SDS011;54672;46.096;14.470;2024-03-06T05:58:11;23.40;;;10.05;;
67867;SDS011;54672;46.096;14.470;2024-03-06T06:00:36;22.10;;;9.90;;
67867;SDS011;54672;46.096;14.470;2024-03-06T06:03:03;20.50;;;9.40;;
67867;SDS011;54672;46.096;14.470;2024-03-06T06:05:28;17.95;;;8.63;;
67867;SDS011;54672;46.096;14.470;2024-03-06T06:07:54;18.38;;;8.63;;
67867;SDS011;54672;46.096;14.470;2024-03-06T06:10:19;21.52;;;9.35;;
67867;SDS011;54672;46.096;14.470;2024-03-06T06:12:45;21.58;;;9.13;;
67867;SDS011;54672;46.096;14.470;2024-03-06T06:15:11;25.65;;;9.35;;
67867;SDS011;54672;46.096;14.470;2024-03-06T06:17:37;22.48;;;9.95;;
67867;SDS011;54672;46.096;14.470;2024-03-06T06:20:06;21.88;;;9.52;;
67867;SDS011;54672;46.096;14.470;2024-03-06T06:22:39;22.98;;;10.18;;
67867;SDS011;54672;46.096;14.470;2024-03-06T06:25:07;22.20;;;9.52;;
67867;SDS011;54672;46.096;14.470;2024-03-06T06:27:33;21.80;;;10.02;;
67867;SDS011;54672;46.096;14.470;2024-03-06T06:29:58;21.98;;;10.00;;
67867;SDS011;54672;46.096;14.470;2024-03-06T06:32:24;26.50;;;9.75;;
67867;SDS011;54672;46.096;14.470;2024-03-06T06:34:50;23.02;;;10.50;;
67867;SDS011;54672;46.096;14.470;2024-03-06T06:37:15;26.15;;;10.27;;
67867;SDS011;54672;46.096;14.470;2024-03-06T06:39:41;22.40;;;9.48;;
67867;SDS011;54672;46.096;14.470;2024-03-06T06:42:07;25.15;;;10.63;;
67867;SDS011;54672;46.096;14.470;2024-03-06T06:44:33;25.63;;;10.68;;
67867;SDS011;54672;46.096;14.470;2024-03-06T06:46:59;23.52;;;10.80;;
67867;SDS011;54672;46.096;14.470;2024-03-06T06:49:24;26.77;;;11.05;;
67867;SDS011;54672;46.096;14.470;2024-03-06T06:51:50;21.27;;;10.25;;
67867;SDS011;54672;46.096;14.470;2024-03-06T06:54:16;26.63;;;10.68;;
67867;SDS011;54672;46.096;14.470;2024-03-06T06:56:42;27.13;;;10.63;;
67867;SDS011;54672;46.096;14.470;2024-03-06T06:59:07;24.30;;;11.23;;
67867;SDS011;54672;46.096;14.470;2024-03-06T07:01:33;28.85;;;11.23;;
67867;SDS011;54672;46.096;14.470;2024-03-06T07:03:58;24.88;;;10.50;;
67867;SDS011;54672;46.096;14.470;2024-03-06T07:06:24;25.25;;;10.60;;
67867;SDS011;54672;46.096;14.470;2024-03-06T07:08:50;26.90;;;11.55;;
67867;SDS011;54672;46.096;14.470;2024-03-06T07:11:18;23.83;;;10.75;;
67867;SDS011;54672;46.096;14.470;2024-03-06T07:13:45;23.17;;;11.25;;
67867;SDS011;54672;46.096;14.470;2024-03-06T07:16:11;26.13;;;12.07;;
67867;SDS011;54672;46.096;14.470;2024-03-06T07:18:36;26.88;;;12.00;;
67867;SDS011;54672;46.096;14.470;2024-03-06T07:21:02;28.60;;;12.15;;
67867;SDS011;54672;46.096;14.470;2024-03-06T07:23:28;26.88;;;12.30;;
67867;SDS011;54672;46.096;14.470;2024-03-06T07:25:53;30.83;;;13.02;;
67867;SDS011;54672;46.096;14.470;2024-03-06T07:28:19;25.67;;;11.13;;
67867;SDS011;54672;46.096;14.470;2024-03-06T07:30:46;29.23;;;12.82;;
67867;SDS011;54672;46.096;14.470;2024-03-06T07:33:11;29.50;;;11.82;;
67867;SDS011;54672;46.096;14.470;2024-03-06T07:35:39;29.00;;;11.77;;
67867;SDS011;54672;46.096;14.470;2024-03-06T07:38:05;30.27;;;10.88;;
67867;SDS011;54672;46.096;14.470;2024-03-06T07:40:34;25.92;;;12.52;;
67867;SDS011;54672;46.096;14.470;2024-03-06T07:43:00;28.60;;;11.98;;
67867;SDS011;54672;46.096;14.470;2024-03-06T07:45:25;27.08;;;11.98;;
67867;SDS011;54672;46.096;14.470;2024-03-06T07:47:52;24.65;;;12.45;;
67867;SDS011;54672;46.096;14.470;2024-03-06T07:50:17;28.83;;;13.40;;
67867;SDS011;54672;46.096;14.470;2024-03-06T07:52:47;33.55;;;13.23;;
67867;SDS011;54672;46.096;14.470;2024-03-06T07:55:15;32.95;;;13.88;;
67867;SDS011;54672;46.096;14.470;2024-03-06T07:57:43;26.40;;;11.80;;
67867;SDS011;54672;46.096;14.470;2024-03-06T08:00:09;34.90;;;14.25;;
67867;SDS011;54672;46.096;14.470;2024-03-06T08:02:40;30.23;;;13.23;;
67867;SDS011;54672;46.096;14.470;2024-03-06T08:05:12;32.70;;;12.77;;
67867;SDS011;54672;46.096;14.470;2024-03-06T08:07:41;30.50;;;12.60;;
67867;SDS011;54672;46.096;14.470;2024-03-06T08:10:10;26.55;;;12.65;;
67867;SDS011;54672;46.096;14.470;2024-03-06T08:12:42;30.60;;;12.75;;
67867;SDS011;54672;46.096;14.470;2024-03-06T08:15:09;28.05;;;12.90;;
67867;SDS011;54672;46.096;14.470;2024-03-06T08:17:36;29.90;;;12.90;;
67867;SDS011;54672;46.096;14.470;2024-03-06T08:20:09;29.80;;;12.02;;
67867;SDS011;54672;46.096;14.470;2024-03-06T08:22:39;31.13;;;12.10;;
67867;SDS011;54672;46.096;14.470;2024-03-06T08:25:06;25.33;;;10.82;;
67867;SDS011;54672;46.096;14.470;2024-03-06T08:27:34;25.33;;;11.70;;
67867;SDS011;54672;46.096;14.470;2024-03-06T08:30:01;27.98;;;11.68;;
67867;SDS011;54672;46.096;14.470;2024-03-06T08:32:29;28.23;;;12.00;;
67867;SDS011;54672;46.096;14.470;2024-03-06T08:34:56;27.35;;;11.57;;
67867;SDS011;54672;46.096;14.470;2024-03-06T08:37:21;26.92;;;11.73;;
67867;SDS011;54672;46.096;14.470;2024-03-06T08:39:47;26.38;;;11.45;;
67867;SDS011;54672;46.096;14.470;2024-03-06T08:42:16;32.55;;;11.15;;
67867;SDS011;54672;46.096;14.470;2024-03-06T08:44:43;28.08;;;12.18;;
67867;SDS011;54672;46.096;14.470;2024-03-06T08:47:09;25.30;;;11.55;;
67867;SDS011;54672;46.096;14.470;2024-03-06T08:49:35;31.63;;;12.45;;
67867;SDS011;54672;46.096;14.470;2024-03-06T08:52:00;24.42;;;11.07;;
67867;SDS011;54672;46.096;14.470;2024-03-06T08:54:26;29.13;;;12.07;;
67867;SDS011;54672;46.096;14.470;2024-03-06T08:56:51;29.13;;;11.85;;
67867;SDS011;54672;46.096;14.470;2024-03-06T08:59:23;23.77;;;10.32;;
67867;SDS011;54672;46.096;14.470;2024-03-06T09:01:49;27.25;;;11.35;;
67867;SDS011;54672;46.096;14.470;2024-03-06T09:04:17;23.50;;;10.35;;
67867;SDS011;54672;46.096;14.470;2024-03-06T09:06:45;30.33;;;11.40;;
67867;SDS011;54672;46.096;14.470;2024-03-06T09:09:11;23.77;;;10.48;;
67867;SDS011;54672;46.096;14.470;2024-03-06T09:11:40;21.35;;;10.40;;
67867;SDS011;54672;46.096;14.470;2024-03-06T09:14:07;26.95;;;11.57;;
67867;SDS011;54672;46.096;14.470;2024-03-06T09:16:34;26.77;;;10.88;;
67867;SDS011;54672;46.096;14.470;2024-03-06T09:19:00;24.92;;;11.18;;
67867;SDS011;54672;46.096;14.470;2024-03-06T09:21:25;27.42;;;11.57;;
67867;SDS011;54672;46.096;14.470;2024-03-06T09:23:51;25.30;;;10.88;;
67867;SDS011;54672;46.096;14.470;2024-03-06T09:26:17;25.15;;;11.20;;
67867;SDS011;54672;46.096;14.470;2024-03-06T09:28:43;27.08;;;12.02;;
67867;SDS011;54672;46.096;14.470;2024-03-06T09:31:08;25.65;;;11.70;;
67867;SDS011;54672;46.096;14.470;2024-03-06T09:33:34;26.75;;;11.02;;
67867;SDS011;54672;46.096;14.470;2024-03-06T09:35:59;25.95;;;12.15;;
67867;SDS011;54672;46.096;14.470;2024-03-06T09:38:25;24.55;;;11.95;;
67867;SDS011;54672;46.096;14.470;2024-03-06T09:40:51;26.02;;;11.82;;
67867;SDS011;54672;46.096;14.470;2024-03-06T09:43:17;23.67;;;10.93;;
67867;SDS011;54672;46.096;14.470;2024-03-06T09:45:46;26.67;;;10.90;;
67867;SDS011;54672;46.096;14.470;2024-03-06T09:48:15;23.58;;;10.85;;
67867;SDS011;54672;46.096;14.470;2024-03-06T09:50:44;23.83;;;10.90;;
67867;SDS011;54672;46.096;14.470;2024-03-06T09:53:11;26.75;;;11.70;;
67867;SDS011;54672;46.096;14.470;2024-03-06T09:55:40;29.15;;;12.38;;
67867;SDS011;54672;46.096;14.470;2024-03-06T09:58:06;27.30;;;10.95;;
67867;SDS011;54672;46.096;14.470;2024-03-06T10:00:34;29.65;;;11.60;;
67867;SDS011;54672;46.096;14.470;2024-03-06T10:03:01;30.25;;;13.32;;
67867;SDS011;54672;46.096;14.470;2024-03-06T10:05:33;25.13;;;10.95;;
67867;SDS011;54672;46.096;14.470;2024-03-06T10:08:02;29.08;;;13.20;;
67867;SDS011;54672;46.096;14.470;2024-03-06T10:10:31;32.80;;;13.57;;
67867;SDS011;54672;46.096;14.470;2024-03-06T10:12:57;30.52;;;12.75;;
67867;SDS011;54672;46.096;14.470;2024-03-06T10:15:25;34.70;;;12.63;;
67867;SDS011;54672;46.096;14.470;2024-03-06T10:18:09;34.25;;;12.02;;
67867;SDS011;54672;46.096;14.470;2024-03-06T10:20:39;26.23;;;11.98;;
67867;SDS011;54672;46.096;14.470;2024-03-06T10:23:05;31.38;;;12.85;;
67867;SDS011;54672;46.096;14.470;2024-03-06T10:25:34;31.88;;;12.55;;
67867;SDS011;54672;46.096;14.470;2024-03-06T10:28:07;28.40;;;12.23;;
67867;SDS011;54672;46.096;14.470;2024-03-06T10:30:37;27.40;;;12.63;;
67867;SDS011;54672;46.096;14.470;2024-03-06T10:33:08;29.50;;;12.23;;
67867;SDS011;54672;46.096;14.470;2024-03-06T10:35:34;28.08;;;12.77;;
67867;SDS011;54672;46.096;14.470;2024-03-06T10:38:03;28.67;;;12.60;;
67867;SDS011;54672;46.096;14.470;2024-03-06T10:40:34;31.85;;;13.07;;
67867;SDS011;54672;46.096;14.470;2024-03-06T10:43:01;33.65;;;12.90;;
67867;SDS011;54672;46.096;14.470;2024-03-06T10:45:50;33.38;;;13.32;;
67867;SDS011;54672;46.096;14.470;2024-03-06T10:48:18;30.75;;;12.68;;
67867;SDS011;54672;46.096;14.470;2024-03-06T10:50:45;32.40;;;12.23;;
67867;SDS011;54672;46.096;14.470;2024-03-06T10:53:13;29.50;;;11.82;;
67867;SDS011;54672;46.096;14.470;2024-03-06T10:55:39;32.08;;;12.52;;
67867;SDS011;54672;46.096;14.470;2024-03-06T10:58:13;26.65;;;12.18;;
67867;SDS011;54672;46.096;14.470;2024-03-06T11:00:45;30.80;;;12.18;;
67867;SDS011;54672;46.096;14.470;2024-03-06T11:03:15;33.97;;;13.23;;
67867;SDS011;54672;46.096;14.470;2024-03-06T11:05:42;30.70;;;12.18;;
67867;SDS011;54672;46.096;14.470;2024-03-06T11:08:10;32.22;;;13.20;;
67867;SDS011;54672;46.096;14.470;2024-03-06T11:10:41;26.25;;;12.05;;
67867;SDS011;54672;46.096;14.470;2024-03-06T11:13:30;29.92;;;12.95;;
67867;SDS011;54672;46.096;14.470;2024-03-06T11:15:58;31.23;;;13.00;;
67867;SDS011;54672;46.096;14.470;2024-03-06T11:20:59;29.75;;;12.75;;
67867;SDS011;54672;46.096;14.470;2024-03-06T11:23:25;30.90;;;13.52;;
67867;SDS011;54672;46.096;14.470;2024-03-06T11:38:59;35.97;;;12.38;;
67867;SDS011;54672;46.096;14.470;2024-03-06T11:44:01;30.65;;;12.43;;
67867;SDS011;54672;46.096;14.470;2024-03-06T11:46:43;28.23;;;10.82;;
67867;SDS011;54672;46.096;14.470;2024-03-06T11:49:19;25.00;;;11.03;;
67867;SDS011;54672;46.096;14.470;2024-03-06T11:51:46;28.77;;;12.80;;
67867;SDS011;54672;46.096;14.470;2024-03-06T11:54:13;28.63;;;11.63;;
67867;SDS011;54672;46.096;14.470;2024-03-06T11:56:39;29.02;;;12.82;;
67867;SDS011;54672;46.096;14.470;2024-03-06T11:59:07;28.75;;;11.93;;
67867;SDS011;54672;46.096;14.470;2024-03-06T12:01:36;28.63;;;11.73;;
67867;SDS011;54672;46.096;14.470;2024-03-06T12:04:02;36.25;;;14.07;;
67867;SDS011;54672;46.096;14.470;2024-03-06T12:06:29;33.95;;;13.40;;
67867;SDS011;54672;46.096;14.470;2024-03-06T12:08:55;29.77;;;11.98;;
67867;SDS011;54672;46.096;14.470;2024-03-06T12:11:20;30.83;;;12.63;;
67867;SDS011;54672;46.096;14.470;2024-03-06T12:13:49;30.02;;;12.15;;
67867;SDS011;54672;46.096;14.470;2024-03-06T12:16:17;25.70;;;11.13;;
67867;SDS011;54672;46.096;14.470;2024-03-06T12:18:43;31.10;;;12.15;;
67867;SDS011;54672;46.096;14.470;2024-03-06T12:21:12;23.95;;;11.27;;
67867;SDS011;54672;46.096;14.470;2024-03-06T12:23:38;23.60;;;10.95;;
67867;SDS011;54672;46.096;14.470;2024-03-06T12:26:07;28.30;;;11.95;;
67867;SDS011;54672;46.096;14.470;2024-03-06T12:28:37;29.50;;;12.18;;
67867;SDS011;54672;46.096;14.470;2024-03-06T12:31:03;31.10;;;11.43;;
67867;SDS011;54672;46.096;14.470;2024-03-06T12:33:29;27.58;;;12.10;;
67867;SDS011;54672;46.096;14.470;2024-03-06T12:36:02;22.70;;;10.68;;
67867;SDS011;54672;46.096;14.470;2024-03-06T12:38:35;24.65;;;11.38;;
67867;SDS011;54672;46.096;14.470;2024-03-06T12:41:01;27.33;;;11.45;;
67867;SDS011;54672;46.096;14.470;2024-03-06T12:43:29;28.63;;;10.98;;
67867;SDS011;54672;46.096;14.470;2024-03-06T12:45:55;26.38;;;11.13;;
67867;SDS011;54672;46.096;14.470;2024-03-06T12:48:22;24.45;;;11.50;;
67867;SDS011;54672;46.096;14.470;2024-03-06T12:50:48;27.77;;;12.15;;
67867;SDS011;54672;46.096;14.470;2024-03-06T12:53:26;31.20;;;11.98;;
67867;SDS011;54672;46.096;14.470;2024-03-06T12:55:51;25.88;;;11.15;;
67867;SDS011;54672;46.096;14.470;2024-03-06T12:58:17;24.63;;;11.23;;
67867;SDS011;54672;46.096;14.470;2024-03-06T13:00:42;29.73;;;12.48;;
67867;SDS011;54672;46.096;14.470;2024-03-06T13:03:07;32.42;;;11.30;;
67867;SDS011;54672;46.096;14.470;2024-03-06T13:05:33;27.52;;;11.93;;
67867;SDS011;54672;46.096;14.470;2024-03-06T13:07:59;26.77;;;10.98;;
67867;SDS011;54672;46.096;14.470;2024-03-06T13:10:25;24.65;;;10.52;;
67867;SDS011;54672;46.096;14.470;2024-03-06T13:12:50;30.90;;;11.60;;
67867;SDS011;54672;46.096;14.470;2024-03-06T13:15:16;26.23;;;11.15;;
67867;SDS011;54672;46.096;14.470;2024-03-06T13:17:42;25.13;;;11.65;;
67867;SDS011;54672;46.096;14.470;2024-03-06T13:20:08;30.75;;;11.30;;
67867;SDS011;54672;46.096;14.470;2024-03-06T13:22:39;24.27;;;10.63;;
67867;SDS011;54672;46.096;14.470;2024-03-06T13:25:07;26.67;;;12.35;;
67867;SDS011;54672;46.096;14.470;2024-03-06T13:27:33;25.90;;;10.88;;
67867;SDS011;54672;46.096;14.470;2024-03-06T13:29:59;24.88;;;10.30;;
67867;SDS011;54672;46.096;14.470;2024-03-06T13:32:24;25.30;;;9.90;;
67867;SDS011;54672;46.096;14.470;2024-03-06T13:34:53;23.73;;;9.98;;
67867;SDS011;54672;46.096;14.470;2024-03-06T13:37:20;23.58;;;9.75;;
67867;SDS011;54672;46.096;14.470;2024-03-06T13:39:48;25.65;;;10.13;;
67867;SDS011;54672;46.096;14.470;2024-03-06T13:42:18;27.55;;;9.05;;
67867;SDS011;54672;46.096;14.470;2024-03-06T13:44:43;23.65;;;9.55;;
67867;SDS011;54672;46.096;14.470;2024-03-06T13:47:14;20.73;;;9.35;;
67867;SDS011;54672;46.096;14.470;2024-03-06T13:49:43;23.95;;;9.35;;
67867;SDS011;54672;46.096;14.470;2024-03-06T13:52:09;21.52;;;8.73;;
67867;SDS011;54672;46.096;14.470;2024-03-06T13:54:39;20.35;;;8.80;;
67867;SDS011;54672;46.096;14.470;2024-03-06T13:57:07;21.08;;;8.85;;
67867;SDS011;54672;46.096;14.470;2024-03-06T13:59:33;23.17;;;8.63;;
67867;SDS011;54672;46.096;14.470;2024-03-06T14:02:00;24.13;;;8.50;;
67867;SDS011;54672;46.096;14.470;2024-03-06T14:04:26;20.98;;;9.40;;
67867;SDS011;54672;46.096;14.470;2024-03-06T14:06:52;23.25;;;8.27;;
67867;SDS011;54672;46.096;14.470;2024-03-06T14:09:18;23.52;;;9.27;;
67867;SDS011;54672;46.096;14.470;2024-03-06T14:11:44;19.17;;;8.52;;
67867;SDS011;54672;46.096;14.470;2024-03-06T14:14:10;23.05;;;9.20;;
67867;SDS011;54672;46.096;14.470;2024-03-06T14:16:39;21.38;;;8.95;;
67867;SDS011;54672;46.096;14.470;2024-03-06T14:19:06;19.65;;;9.05;;
67867;SDS011;54672;46.096;14.470;2024-03-06T14:21:33;18.67;;;8.20;;
67867;SDS011;54672;46.096;14.470;2024-03-06T14:24:00;20.50;;;7.90;;
67867;SDS011;54672;46.096;14.470;2024-03-06T14:26:32;20.70;;;8.30;;
67867;SDS011;54672;46.096;14.470;2024-03-06T14:28:59;19.88;;;8.40;;
67867;SDS011;54672;46.096;14.470;2024-03-06T14:31:25;16.40;;;7.57;;
67867;SDS011;54672;46.096;14.470;2024-03-06T14:33:51;19.98;;;7.72;;